Time;durP1;ratioP1;P1;durP2;ratioP2;P2;SDS_P1;SDS_P2;PMS_P1;PMS_P2;Temp;Humidity;BMP_temperature;BMP_pressure;BME280_temperature;BME280_humidity;BME280_pressure;Samples;Min_cycle;Max_cycle;Signal;HPM_P1;HPM_P2
2023/01/24 00:01:20;;;;;;;15.02;7.43;;;-5.10;99.90;;;;;;5093192;28;20119;-73
2023/01/24 00:03:50;;;;;;;13.27;7.03;;;-5.00;99.90;;;;;;5074131;28;20096;-74
2023/01/24 00:06:19;;;;;;;10.27;6.55;;;-4.90;99.90;;;;;;5077781;28;20060;-75
2023/01/24 00:08:46;;;;;;;15.48;7.43;;;-4.80;99.90;;;;;;5093050;28;20139;-74
2023/01/24 00:11:15;;;;;;;17.73;8.10;;;-4.70;99.90;;;;;;5093344;28;20056;-74
2023/01/24 00:13:42;;;;;;;17.60;8.10;;;-4.70;99.90;;;;;;5092053;28;20083;-74
2023/01/24 00:16:14;;;;;;;16.23;7.20;;;-4.70;99.90;;;;;;5089715;28;20044;-75
2023/01/24 00:18:43;;;;;;;18.23;7.68;;;-4.70;99.90;;;;;;5092483;28;20163;-74
2023/01/24 00:21:14;;;;;;;15.20;7.40;;;-4.80;99.90;;;;;;5091880;28;20052;-74
2023/01/24 00:23:42;;;;;;;11.27;7.13;;;-4.80;99.90;;;;;;5092089;28;20139;-74
2023/01/24 00:26:10;;;;;;;12.98;7.13;;;-4.80;99.90;;;;;;5090414;28;20047;-73
2023/01/24 00:28:38;;;;;;;21.88;9.18;;;-4.80;99.90;;;;;;5074687;28;20050;-74
2023/01/24 00:31:06;;;;;;;13.13;7.05;;;-4.80;99.90;;;;;;5093587;28;20047;-74
2023/01/24 00:33:34;;;;;;;13.75;7.82;;;-4.80;99.90;;;;;;5090634;28;20068;-74
2023/01/24 00:36:07;;;;;;;11.50;6.82;;;-4.80;99.90;;;;;;5093722;28;20067;-74
2023/01/24 00:38:34;;;;;;;12.93;6.18;;;-4.80;99.90;;;;;;5091109;28;20113;-74
2023/01/24 00:41:02;;;;;;;13.57;7.35;;;-4.70;99.90;;;;;;5092478;28;20077;-71
2023/01/24 00:43:31;;;;;;;12.07;6.38;;;-4.70;99.90;;;;;;5092633;28;20471;-70
2023/01/24 00:45:59;;;;;;;12.15;7.22;;;-4.70;99.90;;;;;;5074635;28;20040;-70
2023/01/24 00:48:27;;;;;;;13.60;6.68;;;-4.70;99.90;;;;;;5073678;28;20569;-71
2023/01/24 00:50:54;;;;;;;17.35;8.00;;;-4.80;99.90;;;;;;5092846;28;20044;-70
2023/01/24 00:53:25;;;;;;;26.83;11.02;;;-4.70;99.90;;;;;;5091793;28;20055;-71
2023/01/24 00:55:54;;;;;;;20.90;8.23;;;-4.70;99.90;;;;;;5092929;28;20052;-70
2023/01/24 00:58:22;;;;;;;13.65;6.57;;;-4.60;99.90;;;;;;5091710;28;20575;-70
2023/01/24 01:00:50;;;;;;;16.45;8.63;;;-4.60;99.90;;;;;;5091890;28;20504;-70
2023/01/24 01:03:19;;;;;;;14.00;7.53;;;-4.60;99.90;;;;;;5091446;28;20054;-70
2023/01/24 01:05:47;;;;;;;16.90;9.35;;;-4.50;99.90;;;;;;5089204;28;20048;-70
2023/01/24 01:08:15;;;;;;;18.35;7.35;;;-4.50;99.90;;;;;;5090324;28;20147;-70
2023/01/24 01:10:45;;;;;;;15.82;8.18;;;-4.40;99.90;;;;;;5090167;28;20044;-70
2023/01/24 01:13:13;;;;;;;14.43;7.60;;;-4.30;99.90;;;;;;5091030;28;20062;-71
2023/01/24 01:15:41;;;;;;;12.88;7.03;;;-4.30;99.90;;;;;;5092649;28;20139;-70
2023/01/24 01:18:09;;;;;;;16.98;8.20;;;-4.30;99.90;;;;;;5074412;28;20067;-68
2023/01/24 01:20:37;;;;;;;14.32;7.78;;;-4.30;99.90;;;;;;5090222;28;20044;-70
2023/01/24 01:23:04;;;;;;;18.83;8.52;;;-4.30;99.90;;;;;;5090645;28;20055;-70
2023/01/24 01:25:33;;;;;;;15.18;7.75;;;-4.30;99.90;;;;;;5090316;28;20089;-70
2023/01/24 01:28:02;;;;;;;15.15;7.22;;;-4.30;99.90;;;;;;5089860;28;20076;-69
2023/01/24 01:30:29;;;;;;;17.08;7.88;;;-4.20;99.90;;;;;;5092554;28;20079;-70
2023/01/24 01:32:57;;;;;;;16.63;8.57;;;-4.20;99.90;;;;;;5091954;28;20129;-70
2023/01/24 01:35:25;;;;;;;17.35;8.20;;;-4.10;99.90;;;;;;5090382;28;20048;-71
2023/01/24 01:37:54;;;;;;;18.45;8.30;;;-4.00;99.90;;;;;;5087977;28;20067;-69
2023/01/24 01:40:21;;;;;;;16.73;9.00;;;-4.00;99.90;;;;;;5091602;28;20048;-69
2023/01/24 01:42:55;;;;;;;15.60;8.93;;;-4.00;99.90;;;;;;5091033;28;20051;-69
2023/01/24 01:45:44;;;;;;;15.50;8.55;;;-4.00;99.90;;;;;;5091973;28;20153;-71
2023/01/24 01:48:21;;;;;;;11.05;7.05;;;-4.00;99.90;;;;;;5088237;28;20056;-69
2023/01/24 01:50:59;;;;;;;10.35;6.30;;;-4.00;99.90;;;;;;5090443;28;20083;-69
2023/01/24 01:53:32;;;;;;;8.85;5.70;;;-4.00;99.90;;;;;;5092059;28;20062;-70
2023/01/24 01:56:05;;;;;;;10.43;6.85;;;-4.00;99.90;;;;;;5088847;28;20548;-72
2023/01/24 01:58:34;;;;;;;14.02;6.57;;;-3.90;99.90;;;;;;5072259;28;20586;-70
2023/01/24 02:01:04;;;;;;;9.25;6.55;;;-3.90;99.90;;;;;;5082494;28;20498;-70
2023/01/24 02:03:40;;;;;;;9.55;6.35;;;-3.90;99.90;;;;;;5071506;28;20052;-68
2023/01/24 02:06:31;;;;;;;11.55;6.63;;;-3.80;99.90;;;;;;5090661;28;20492;-70
2023/01/24 02:09:00;;;;;;;11.43;6.57;;;-3.80;99.90;;;;;;5092030;28;20043;-69
2023/01/24 02:11:40;;;;;;;9.88;6.35;;;-3.80;99.90;;;;;;5090412;28;20044;-69
2023/01/24 02:17:06;;;;;;;11.68;6.82;;;-3.80;99.90;;;;;;5074643;28;20523;-71
2023/01/24 02:20:02;;;;;;;13.63;7.93;;;-3.80;99.90;;;;;;5060550;28;20048;-71
2023/01/24 02:22:53;;;;;;;10.95;6.47;;;-3.80;99.90;;;;;;5086845;28;20043;-70
2023/01/24 02:25:30;;;;;;;7.68;5.55;;;-3.80;99.90;;;;;;5072194;28;20055;-71
2023/01/24 02:28:02;;;;;;;8.88;6.05;;;-3.80;99.90;;;;;;5091463;28;20526;-70
2023/01/24 02:30:32;;;;;;;10.00;5.75;;;-3.80;99.90;;;;;;5073287;28;20420;-71
2023/01/24 02:33:00;;;;;;;14.80;7.03;;;-3.70;99.90;;;;;;5088196;28;20490;-70
2023/01/24 02:35:31;;;;;;;10.93;5.20;;;-3.80;99.90;;;;;;5089914;28;20051;-70
2023/01/24 02:38:00;;;;;;;10.57;6.07;;;-3.80;99.90;;;;;;5090097;28;20059;-70
2023/01/24 02:40:30;;;;;;;11.38;6.95;;;-3.70;99.90;;;;;;5071363;28;20048;-70
2023/01/24 02:43:02;;;;;;;8.95;5.93;;;-3.70;99.90;;;;;;5071608;28;20136;-70
2023/01/24 02:45:33;;;;;;;11.68;6.43;;;-3.70;99.90;;;;;;5090913;28;20071;-70
2023/01/24 02:48:01;;;;;;;10.05;6.32;;;-3.60;99.90;;;;;;5089371;28;20059;-70
2023/01/24 02:53:28;;;;;;;10.48;6.13;;;-3.60;99.90;;;;;;5088035;28;20432;-69
2023/01/24 02:53:31;;;;;;;9.38;5.53;;;-3.60;99.90;;;;;;5088854;28;20070;-69
2023/01/24 02:58:48;;;;;;;13.45;6.68;;;-3.40;99.90;;;;;;5087558;28;20114;-70
2023/01/24 03:01:17;;;;;;;8.75;5.35;;;-3.40;99.90;;;;;;5087601;28;20052;-70
2023/01/24 03:03:48;;;;;;;9.23;5.60;;;-3.40;99.90;;;;;;5089532;28;20428;-71
2023/01/24 03:06:18;;;;;;;8.32;5.45;;;-3.30;99.90;;;;;;5088633;28;20098;-70
2023/01/24 03:08:46;;;;;;;8.43;5.57;;;-3.30;99.90;;;;;;5071330;28;20044;-70
2023/01/24 03:11:23;;;;;;;7.63;5.07;;;-3.30;99.90;;;;;;5090364;28;20101;-71
2023/01/24 03:36:06;;;;;;;6.88;3.83;;;-3.10;99.90;;;;;;5086387;28;20499;-71
2023/01/24 03:41:25;;;;;;;7.47;4.22;;;-3.00;99.90;;;;;;5089453;28;20055;-76
2023/01/24 03:43:52;;;;;;;4.70;4.18;;;-3.00;99.90;;;;;;5087711;28;20063;-75
2023/01/24 03:46:22;;;;;;;6.95;4.57;;;-3.00;99.90;;;;;;5087491;28;20044;-75
2023/01/24 03:48:53;;;;;;;6.43;4.78;;;-2.90;99.90;;;;;;5089233;28;20678;-76
2023/01/24 03:54:14;;;;;;;6.30;4.28;;;-2.90;99.90;;;;;;5087752;28;20059;-74
2023/01/24 03:57:02;;;;;;;6.15;3.72;;;-2.90;99.90;;;;;;5089568;28;20055;-74
2023/01/24 03:59:29;;;;;;;8.52;4.88;;;-2.90;99.90;;;;;;5089879;28;20058;-74
2023/01/24 04:01:58;;;;;;;6.95;3.97;;;-2.80;99.90;;;;;;5074605;28;20079;-69
2023/01/24 04:05:12;;;;;;;6.70;4.25;;;-2.80;99.90;;;;;;5086862;28;20462;-69
2023/01/24 04:07:19;;;;;;;5.95;3.88;;;-2.80;99.90;;;;;;5071815;28;20257;-71
2023/01/24 04:09:46;;;;;;;6.88;3.65;;;-2.70;99.90;;;;;;5081986;28;20094;-74
2023/01/24 04:12:15;;;;;;;5.30;3.92;;;-2.70;99.90;;;;;;5081773;28;20068;-75
2023/01/24 04:14:43;;;;;;;4.03;3.42;;;-2.70;99.90;;;;;;5076552;28;20496;-73
2023/01/24 04:17:15;;;;;;;7.72;3.90;;;-2.70;99.90;;;;;;5085609;28;20049;-73
2023/01/24 04:19:48;;;;;;;9.80;4.68;;;-2.70;99.90;;;;;;5078856;28;20047;-77
2023/01/24 04:22:17;;;;;;;10.68;5.10;;;-2.60;99.90;;;;;;5068803;28;20044;-75
2023/01/24 04:24:46;;;;;;;10.30;5.22;;;-2.60;99.90;;;;;;5079521;28;20400;-76
2023/01/24 04:27:16;;;;;;;14.15;6.13;;;-2.60;99.90;;;;;;5084739;28;20130;-74
2023/01/24 04:30:07;;;;;;;9.93;4.65;;;-2.60;99.90;;;;;;5082300;28;20052;-71
2023/01/24 04:32:38;;;;;;;9.35;5.15;;;-2.60;99.90;;;;;;5091941;28;20063;-72
2023/01/24 04:35:19;;;;;;;8.20;4.22;;;-2.60;99.90;;;;;;5091654;28;20508;-70
2023/01/24 04:38:02;;;;;;;12.82;5.05;;;-2.50;99.90;;;;;;5104467;28;20450;-74
2023/01/24 04:41:05;;;;;;;8.43;4.95;;;-2.50;99.90;;;;;;5049643;28;20056;-70
2023/01/24 04:43:40;;;;;;;8.15;5.18;;;-2.50;99.90;;;;;;5067698;28;20447;-74
2023/01/24 04:46:13;;;;;;;10.45;5.30;;;-2.50;99.90;;;;;;5068022;28;20052;-76
2023/01/24 04:48:56;;;;;;;10.85;4.53;;;-2.40;99.90;;;;;;5089124;28;20048;-71
2023/01/24 04:51:36;;;;;;;10.95;5.55;;;-2.40;99.90;;;;;;5074901;28;20101;-75
2023/01/24 04:54:26;;;;;;;9.02;5.05;;;-2.40;99.90;;;;;;5086293;28;20056;-75
2023/01/24 04:57:04;;;;;;;10.07;4.95;;;-2.40;99.90;;;;;;5089565;28;20051;-75
2023/01/24 04:59:32;;;;;;;10.15;5.63;;;-2.40;99.90;;;;;;5074679;28;20047;-75
2023/01/24 05:02:02;;;;;;;6.43;4.90;;;-2.40;99.90;;;;;;5086696;28;20040;-74
2023/01/24 05:04:48;;;;;;;7.88;4.80;;;-2.30;99.90;;;;;;5078918;28;20068;-73
2023/01/24 05:07:22;;;;;;;7.55;5.13;;;-2.30;99.90;;;;;;5067062;28;20063;-75
2023/01/24 05:09:59;;;;;;;;;;;-2.20;99.90;;;;;;5078900;28;20077;-74
2023/01/24 05:12:27;;;;;;;10.48;5.28;;;-2.30;99.90;;;;;;5066607;28;19924;-76
2023/01/24 05:14:57;;;;;;;7.43;4.55;;;-2.20;99.90;;;;;;5081724;28;20040;-77
2023/01/24 05:17:31;;;;;;;7.15;4.40;;;-2.20;99.90;;;;;;5065188;28;20539;-76
2023/01/24 05:20:00;;;;;;;8.38;4.68;;;-2.20;99.90;;;;;;5080130;28;20059;-74
2023/01/24 05:22:29;;;;;;;8.85;4.57;;;-2.10;99.90;;;;;;5100661;28;20042;-72
2023/01/24 05:24:59;;;;;;;8.65;5.22;;;-2.10;99.90;;;;;;5079790;28;20067;-72
2023/01/24 05:27:27;;;;;;;7.65;5.13;;;-2.20;99.90;;;;;;5106698;27;20048;-72
2023/01/24 05:30:26;;;;;;;5.10;4.55;;;-2.10;99.90;;;;;;5078461;28;20048;-71
2023/01/24 05:33:15;;;;;;;7.13;3.53;;;-2.10;99.90;;;;;;5079521;28;20044;-74
2023/01/24 05:35:46;;;;;;;11.88;4.63;;;-2.10;99.90;;;;;;5083107;28;20052;-72
2023/01/24 05:38:19;;;;;;;10.05;3.90;;;-2.10;99.90;;;;;;5078500;28;20131;-71
2023/01/24 05:40:49;;;;;;;14.52;4.90;;;-2.10;99.90;;;;;;5091833;28;20420;-71
2023/01/24 05:43:16;;;;;;;10.18;4.63;;;-2.10;99.90;;;;;;5082078;28;20048;-71
2023/01/24 05:45:44;;;;;;;6.25;3.65;;;-2.10;99.90;;;;;;5089836;28;20439;-71
2023/01/24 05:48:12;;;;;;;4.65;3.35;;;-2.10;99.90;;;;;;5081533;28;20052;-71
2023/01/24 05:50:46;;;;;;;5.80;3.95;;;-2.10;99.90;;;;;;5091697;28;20555;-71
2023/01/24 05:53:20;;;;;;;5.57;3.38;;;-2.00;99.90;;;;;;5083844;28;20459;-71
2023/01/24 05:55:47;;;;;;;7.78;4.38;;;-2.00;99.90;;;;;;5079653;28;20400;-70
2023/01/24 05:58:15;;;;;;;13.30;4.50;;;-2.00;99.90;;;;;;5089948;28;20154;-71
2023/01/24 06:00:56;;;;;;;6.72;4.45;;;-2.00;99.90;;;;;;5085770;28;20048;-71
2023/01/24 06:03:43;;;;;;;6.38;4.45;;;-1.90;99.90;;;;;;5104782;27;20127;-71
2023/01/24 06:06:16;;;;;;;7.55;4.55;;;-2.00;99.90;;;;;;5080823;28;20094;-69
2023/01/24 06:08:49;;;;;;;4.60;3.75;;;-2.00;99.90;;;;;;5078156;28;20064;-70
2023/01/24 06:11:19;;;;;;;9.15;4.47;;;-1.90;99.90;;;;;;5086693;28;20099;-71
2023/01/24 06:13:49;;;;;;;11.55;5.20;;;-2.00;99.90;;;;;;5091170;28;20060;-71
2023/01/24 06:16:19;;;;;;;10.93;5.45;;;-1.90;99.90;;;;;;5088210;28;20048;-72
2023/01/24 06:18:53;;;;;;;11.60;5.22;;;-1.80;99.90;;;;;;5082088;28;20048;-70
2023/01/24 06:21:43;;;;;;;7.30;5.00;;;-1.80;99.90;;;;;;5077049;28;20426;-73
2023/01/24 06:24:20;;;;;;;7.60;5.30;;;-1.70;99.90;;;;;;5075729;28;20080;-74
2023/01/24 06:27:04;;;;;;;9.25;5.30;;;-1.80;99.90;;;;;;5079366;28;20452;-72
2023/01/24 06:29:32;;;;;;;14.73;4.75;;;-1.80;99.90;;;;;;5085972;28;20056;-73
2023/01/24 06:32:14;;;;;;;7.45;4.20;;;-1.70;99.90;;;;;;5081407;28;20134;-76
2023/01/24 06:35:06;;;;;;;5.70;3.53;;;-1.70;99.90;;;;;;5092496;28;20048;-73
2023/01/24 06:37:45;;;;;;;9.57;4.90;;;-1.70;99.90;;;;;;5083727;28;20163;-74
2023/01/24 06:40:19;;;;;;;13.60;5.32;;;-1.70;99.90;;;;;;5079785;28;20059;-75
2023/01/24 06:42:50;;;;;;;5.35;4.15;;;-1.70;99.90;;;;;;5107491;28;20071;-71
2023/01/24 06:45:18;;;;;;;8.48;4.25;;;-1.60;99.90;;;;;;5089074;28;20036;-72
2023/01/24 06:47:45;;;;;;;7.07;5.22;;;-1.60;99.90;;;;;;5089905;28;20040;-70
2023/01/24 06:50:16;;;;;;;11.43;7.30;;;-1.60;99.90;;;;;;5078124;28;20053;-71
2023/01/24 06:52:47;;;;;;;10.63;5.55;;;-1.50;99.90;;;;;;5069067;28;20275;-71
2023/01/24 06:55:15;;;;;;;9.18;5.07;;;-1.50;99.90;;;;;;5081320;28;20135;-72
2023/01/24 06:57:43;;;;;;;12.10;5.63;;;-1.60;99.90;;;;;;5090095;28;20076;-71
2023/01/24 07:00:12;;;;;;;11.57;6.43;;;-1.60;99.90;;;;;;5089142;28;20538;-70
2023/01/24 07:02:40;;;;;;;23.10;6.68;;;-1.60;99.90;;;;;;5089911;28;20492;-70
2023/01/24 07:05:09;;;;;;;10.93;5.72;;;-1.60;99.90;;;;;;5087067;28;20424;-70
2023/01/24 07:07:36;;;;;;;7.22;4.82;;;-1.60;99.90;;;;;;5073629;28;20044;-71
2023/01/24 07:10:06;;;;;;;9.95;5.20;;;-1.50;99.90;;;;;;5083221;28;20055;-71
2023/01/24 07:12:33;;;;;;;16.13;5.93;;;-1.50;99.90;;;;;;5025328;28;20053;-70
2023/01/24 07:15:01;;;;;;;19.20;8.20;;;-1.50;99.90;;;;;;5007487;28;20136;-71
2023/01/24 07:17:29;;;;;;;15.73;5.95;;;-1.50;99.90;;;;;;5082919;28;20074;-70
2023/01/24 07:19:57;;;;;;;13.60;5.63;;;-1.50;99.90;;;;;;5078641;28;20059;-71
2023/01/24 07:22:25;;;;;;;21.48;8.40;;;-1.50;99.90;;;;;;5084477;28;20055;-72
2023/01/24 07:24:54;;;;;;;23.35;6.88;;;-1.40;99.90;;;;;;5090107;28;20165;-72
2023/01/24 07:27:24;;;;;;;13.77;7.35;;;-1.40;99.90;;;;;;5086541;28;20522;-71
2023/01/24 07:29:51;;;;;;;11.88;6.63;;;-1.40;99.90;;;;;;5075067;28;20090;-71
2023/01/24 07:32:18;;;;;;;15.85;5.53;;;-1.40;99.90;;;;;;5084353;28;20422;-71
2023/01/24 07:34:46;;;;;;;12.15;6.07;;;-1.40;99.90;;;;;;5079887;28;20558;-70
2023/01/24 07:37:14;;;;;;;14.75;7.13;;;-1.40;99.90;;;;;;5072005;28;20140;-71
2023/01/24 07:39:41;;;;;;;17.52;7.35;;;-1.40;99.90;;;;;;5087237;28;20054;-71
2023/01/24 07:42:09;;;;;;;10.65;6.47;;;-1.30;99.90;;;;;;5091877;28;20325;-70
2023/01/24 07:44:38;;;;;;;7.03;4.60;;;-1.30;99.90;;;;;;5089687;28;20488;-72
2023/01/24 07:47:05;;;;;;;14.05;6.43;;;-1.30;99.90;;;;;;5069636;28;20230;-72
2023/01/24 07:49:33;;;;;;;14.88;6.28;;;-1.30;99.90;;;;;;5068002;28;20113;-70
2023/01/24 07:52:00;;;;;;;14.88;4.90;;;-1.30;99.90;;;;;;5083551;28;20048;-71
2023/01/24 07:54:27;;;;;;;10.82;6.28;;;-1.30;99.90;;;;;;5083096;28;20056;-69
2023/01/24 07:56:55;;;;;;;13.75;7.75;;;-1.30;99.90;;;;;;5090073;28;20040;-71
2023/01/24 07:59:22;;;;;;;11.60;7.00;;;-1.20;99.90;;;;;;5094117;28;20048;-71
2023/01/24 08:01:51;;;;;;;8.73;6.18;;;-1.20;99.90;;;;;;5075511;28;20044;-70
2023/01/24 08:04:18;;;;;;;10.05;5.38;;;-1.20;99.90;;;;;;5094382;28;20059;-71
2023/01/24 08:09:27;;;;;;;8.73;5.30;;;-1.20;99.90;;;;;;5093451;28;20048;-71
2023/01/24 08:11:55;;;;;;;10.02;5.60;;;-1.10;99.90;;;;;;5088859;28;20036;-71
2023/01/24 08:14:23;;;;;;;14.98;7.05;;;-1.10;99.90;;;;;;5084767;28;20116;-71
2023/01/24 08:16:51;;;;;;;15.43;6.53;;;-1.10;99.90;;;;;;5087475;28;20478;-71
2023/01/24 08:19:19;;;;;;;17.10;7.45;;;-1.10;99.90;;;;;;5093831;28;20059;-71
2023/01/24 08:21:47;;;;;;;8.45;4.18;;;-1.10;99.90;;;;;;5090178;28;20052;-71
2023/01/24 08:24:14;;;;;;;14.43;6.25;;;-1.00;99.90;;;;;;5072199;28;20048;-70
2023/01/24 08:26:45;;;;;;;9.85;5.68;;;-1.00;99.90;;;;;;5086092;28;20482;-73
2023/01/24 08:29:13;;;;;;;13.25;4.90;;;-1.00;99.90;;;;;;5077963;28;20073;-71
2023/01/24 08:31:40;;;;;;;9.10;4.15;;;-1.00;99.90;;;;;;5089299;28;20101;-71
2023/01/24 08:34:10;;;;;;;8.32;3.72;;;-1.00;99.90;;;;;;5093204;28;20085;-71
2023/01/24 08:36:38;;;;;;;13.32;5.25;;;-1.00;99.90;;;;;;5091801;28;20056;-71
2023/01/24 08:39:05;;;;;;;9.38;5.70;;;-0.90;99.90;;;;;;5094007;28;20044;-72
2023/01/24 08:41:33;;;;;;;10.35;4.43;;;-1.00;99.90;;;;;;5092594;28;20054;-71
2023/01/24 08:44:02;;;;;;;14.13;5.22;;;-0.90;99.90;;;;;;5075335;28;20048;-72
2023/01/24 08:46:30;;;;;;;11.75;3.55;;;-0.90;99.90;;;;;;5094283;28;20097;-71
2023/01/24 08:48:58;;;;;;;6.97;3.50;;;-0.80;99.90;;;;;;5082873;28;20055;-70
2023/01/24 08:51:26;;;;;;;7.15;3.85;;;-0.80;99.90;;;;;;5087560;28;20111;-72
2023/01/24 08:53:54;;;;;;;5.70;2.78;;;-0.80;99.90;;;;;;5091817;28;20098;-71
2023/01/24 08:56:21;;;;;;;9.50;3.30;;;-0.70;99.90;;;;;;5087839;28;20113;-71
2023/01/24 08:58:49;;;;;;;5.40;3.22;;;-0.70;99.90;;;;;;5079040;28;20076;-70
2023/01/24 09:01:17;;;;;;;8.00;2.50;;;-0.70;99.90;;;;;;5079176;28;20421;-70
2023/01/24 09:03:44;;;;;;;17.02;4.43;;;-0.70;99.90;;;;;;5087870;28;20055;-70
2023/01/24 09:06:12;;;;;;;9.93;3.80;;;-0.60;99.90;;;;;;5073904;28;20055;-69
2023/01/24 09:08:41;;;;;;;4.25;3.38;;;-0.60;99.90;;;;;;5091153;28;20508;-70
2023/01/24 09:11:09;;;;;;;6.28;2.92;;;-0.60;99.90;;;;;;5083066;28;20053;-69
2023/01/24 09:13:39;;;;;;;11.98;4.20;;;-0.50;99.90;;;;;;5084748;28;20052;-72
2023/01/24 09:16:07;;;;;;;4.95;2.97;;;-0.40;99.90;;;;;;5080917;28;20695;-71
2023/01/24 09:18:35;;;;;;;10.52;2.65;;;-0.40;99.90;;;;;;5080158;28;20059;-70
2023/01/24 09:21:05;;;;;;;7.05;3.42;;;-0.30;99.90;;;;;;5082178;28;20052;-72
2023/01/24 09:23:33;;;;;;;7.90;3.25;;;-0.20;99.90;;;;;;5075967;28;20484;-70
2023/01/24 09:26:01;;;;;;;7.00;4.07;;;-0.20;99.90;;;;;;5096763;28;20044;-71
2023/01/24 09:28:29;;;;;;;9.52;2.70;;;-0.20;99.90;;;;;;5102588;28;20589;-70
2023/01/24 09:30:57;;;;;;;8.48;3.05;;;-0.10;99.90;;;;;;5079803;28;20082;-71
2023/01/24 09:33:25;;;;;;;6.50;2.95;;;-0.20;99.90;;;;;;5090184;28;20415;-72
2023/01/24 09:35:54;;;;;;;6.97;3.72;;;-0.20;99.90;;;;;;5092036;28;20151;-74
2023/01/24 09:38:22;;;;;;;10.18;3.75;;;-0.20;99.90;;;;;;5092437;28;20285;-72
2023/01/24 09:40:58;;;;;;;8.80;3.63;;;-0.20;99.90;;;;;;5088041;28;20421;-73
2023/01/24 09:43:52;;;;;;;9.30;2.88;;;-0.20;99.90;;;;;;5085935;28;20056;-73
2023/01/24 09:46:33;;;;;;;4.70;2.70;;;-0.20;99.90;;;;;;5059989;28;20060;-73
2023/01/24 09:49:16;;;;;;;13.35;3.08;;;-0.30;99.90;;;;;;5070007;28;20072;-74
2023/01/24 09:51:48;;;;;;;3.45;2.40;;;-0.30;99.90;;;;;;5071193;28;20071;-75
2023/01/24 09:54:26;;;;;;;4.15;2.80;;;-0.20;99.90;;;;;;5071739;28;20510;-74
2023/01/24 09:56:55;;;;;;;5.35;3.10;;;-0.30;99.90;;;;;;5053672;28;20059;-73
2023/01/24 09:59:34;;;;;;;5.45;2.22;;;-0.30;99.90;;;;;;5071314;28;20064;-73
2023/01/24 10:02:03;;;;;;;8.10;3.00;;;-0.30;99.90;;;;;;5071335;28;20055;-74
2023/01/24 10:04:35;;;;;;;16.27;4.97;;;-0.30;99.90;;;;;;5071703;28;20060;-74
2023/01/24 10:07:30;;;;;;;5.93;3.07;;;-0.20;99.90;;;;;;5084219;28;20117;-74
2023/01/24 10:10:13;;;;;;;6.10;2.80;;;-0.20;99.90;;;;;;5071126;28;20294;-73
2023/01/24 10:12:53;;;;;;;4.22;1.80;;;-0.20;99.90;;;;;;5082125;28;20546;-75
2023/01/24 10:15:37;;;;;;;9.50;3.80;;;-0.20;99.90;;;;;;5072325;28;20049;-74
2023/01/24 10:18:35;;;;;;;8.18;4.03;;;-0.20;99.90;;;;;;5091663;28;20625;-74
2023/01/24 10:21:27;;;;;;;6.55;2.58;;;-0.30;99.90;;;;;;5090060;28;20055;-75
2023/01/24 10:24:00;;;;;;;4.10;2.83;;;-0.20;99.90;;;;;;5091382;28;20063;-75
2023/01/24 10:26:38;;;;;;;3.70;2.55;;;-0.30;99.90;;;;;;5091536;28;20039;-74
2023/01/24 10:29:15;;;;;;;10.85;2.72;;;-0.30;99.90;;;;;;5089136;28;20052;-74
2023/01/24 10:31:53;;;;;;;4.38;2.33;;;-0.20;99.90;;;;;;5087180;28;20098;-76
2023/01/24 10:34:30;;;;;;;4.93;2.22;;;-0.20;99.90;;;;;;5090095;28;20146;-74
2023/01/24 10:37:05;;;;;;;7.65;2.55;;;-0.20;99.90;;;;;;5088107;28;20131;-70
2023/01/24 10:39:32;;;;;;;9.13;3.42;;;-0.20;99.90;;;;;;5087741;28;20052;-71
2023/01/24 10:42:00;;;;;;;8.77;3.40;;;-0.20;99.90;;;;;;5086772;28;20074;-70
2023/01/24 10:44:29;;;;;;;7.55;3.50;;;-0.20;99.90;;;;;;5089685;28;20117;-71
2023/01/24 10:47:38;;;;;;;11.38;3.35;;;-0.10;99.90;;;;;;5088575;28;20043;-72
2023/01/24 10:50:09;;;;;;;8.68;3.28;;;0.00;99.90;;;;;;5094317;28;20086;-70
2023/01/24 10:52:36;;;;;;;6.10;3.00;;;0.00;99.90;;;;;;5089754;28;20504;-69
2023/01/24 10:55:25;;;;;;;4.82;2.22;;;0.10;99.90;;;;;;5088611;28;20044;-70
2023/01/24 10:57:54;;;;;;;8.23;3.70;;;0.10;99.90;;;;;;5088288;28;20079;-71
2023/01/24 11:00:34;;;;;;;13.95;4.28;;;0.10;99.90;;;;;;5090182;28;20054;-71
2023/01/24 11:03:16;;;;;;;10.48;4.05;;;0.10;99.90;;;;;;5076594;28;20048;-70
2023/01/24 11:05:49;;;;;;;9.82;4.20;;;0.10;99.90;;;;;;5080544;28;20160;-70
2023/01/24 11:08:20;;;;;;;19.05;6.80;;;0.10;99.90;;;;;;5094765;28;20453;-70
2023/01/24 11:10:53;;;;;;;12.07;4.80;;;0.20;99.90;;;;;;5081866;28;20044;-72
2023/01/24 11:17:33;;;;;;;24.52;7.43;;;0.30;99.90;;;;;;5085547;28;20051;-70
2023/01/24 11:20:22;;;;;;;16.23;6.97;;;0.30;99.90;;;;;;5087707;28;20048;-70
2023/01/24 11:22:51;;;;;;;14.40;5.78;;;0.30;99.90;;;;;;5079440;28;20059;-73
2023/01/24 11:25:19;;;;;;;12.88;5.68;;;0.30;99.90;;;;;;5079327;28;20159;-74
2023/01/24 11:27:48;;;;;;;22.08;8.30;;;0.30;99.90;;;;;;5069739;28;20097;-71
2023/01/24 11:30:20;;;;;;;33.00;11.05;;;0.30;99.90;;;;;;5078688;28;20128;-72
2023/01/24 11:33:01;;;;;;;8.63;4.13;;;0.40;99.90;;;;;;5094328;28;20063;-72
2023/01/24 11:35:36;;;;;;;6.57;3.72;;;0.40;99.90;;;;;;5085920;28;20134;-75
2023/01/24 11:38:27;;;;;;;7.10;3.17;;;0.40;99.90;;;;;;5093087;28;20146;-75
2023/01/24 11:41:07;;;;;;;7.63;3.58;;;0.40;99.90;;;;;;5086775;28;20044;-74
2023/01/24 11:43:56;;;;;;;13.52;5.43;;;0.40;99.90;;;;;;5090164;28;20052;-73
2023/01/24 11:46:42;;;;;;;10.68;4.60;;;0.40;99.90;;;;;;5089491;28;20528;-73
2023/01/24 11:49:35;;;;;;;5.65;2.88;;;0.40;99.90;;;;;;5072690;28;20151;-75
2023/01/24 11:52:27;;;;;;;9.25;4.65;;;0.50;99.90;;;;;;5088056;28;20052;-75
2023/01/24 11:55:04;;;;;;;5.57;3.00;;;0.50;99.90;;;;;;5094861;28;20473;-74
2023/01/24 11:57:45;;;;;;;3.90;2.72;;;0.50;99.90;;;;;;5082041;28;20432;-76
2023/01/24 12:00:28;;;;;;;5.45;2.40;;;0.50;99.90;;;;;;5094404;28;20057;-72
2023/01/24 12:03:40;;;;;;;2.92;2.55;;;0.60;99.90;;;;;;5082973;28;20119;-71
2023/01/24 12:06:31;;;;;;;4.55;2.50;;;0.60;99.90;;;;;;5020610;28;20068;-74
2023/01/24 12:09:17;;;;;;;3.30;2.10;;;0.60;99.90;;;;;;5089407;28;20132;-75
2023/01/24 12:11:56;;;;;;;6.57;3.30;;;0.60;99.90;;;;;;5078685;28;20089;-75
2023/01/24 12:15:03;;;;;;;9.77;2.85;;;0.60;99.90;;;;;;5084170;28;20424;-74
2023/01/24 12:17:54;;;;;;;6.88;2.85;;;0.60;99.90;;;;;;5093078;28;20145;-78
2023/01/24 12:20:49;;;;;;;4.78;2.67;;;0.60;99.90;;;;;;5094739;28;20044;-71
2023/01/24 12:23:22;;;;;;;4.53;2.13;;;0.60;99.90;;;;;;5088931;28;20039;-72
2023/01/24 12:25:56;;;;;;;5.45;2.22;;;0.70;99.90;;;;;;5088368;28;20144;-71
2023/01/24 12:28:33;;;;;;;8.20;2.55;;;0.70;99.90;;;;;;5087161;28;20066;-71
2023/01/24 12:31:04;;;;;;;6.47;2.60;;;0.70;99.90;;;;;;5085291;28;20049;-71
2023/01/24 12:33:36;;;;;;;3.72;1.75;;;0.70;99.90;;;;;;5072447;28;20151;-70
2023/01/24 12:36:12;;;;;;;5.20;2.00;;;0.70;99.90;;;;;;5092223;28;20056;-71
2023/01/24 12:38:45;;;;;;;3.20;1.98;;;0.70;99.90;;;;;;5092078;28;20055;-75
2023/01/24 12:41:26;;;;;;;2.72;1.92;;;0.70;99.90;;;;;;5087095;28;20060;-73
2023/01/24 12:44:03;;;;;;;3.60;2.15;;;0.80;99.90;;;;;;5070753;28;20494;-76
2023/01/24 12:46:38;;;;;;;6.13;2.40;;;0.80;99.90;;;;;;5078940;28;20063;-68
2023/01/24 12:49:19;;;;;;;6.07;2.13;;;0.80;99.90;;;;;;5081979;28;20113;-88
2023/01/24 12:51:54;;;;;;;6.45;2.22;;;0.90;99.90;;;;;;5086781;28;20040;-77
2023/01/24 12:54:31;;;;;;;8.48;2.88;;;0.90;99.90;;;;;;5097655;28;20155;-81
2023/01/24 12:57:09;;;;;;;2.60;1.85;;;0.90;99.90;;;;;;5095266;28;20497;-79
2023/01/24 12:59:37;;;;;;;2.63;2.10;;;0.90;99.90;;;;;;5091388;28;20487;-81
2023/01/24 13:02:58;;;;;;;5.10;2.53;;;0.90;99.90;;;;;;5078325;28;20050;-79
2023/01/24 13:05:39;;;;;;;3.08;2.03;;;0.90;99.90;;;;;;5047851;28;20499;-80
2023/01/24 13:08:21;;;;;;;8.45;2.47;;;0.90;99.90;;;;;;5093476;28;20385;-80
2023/01/24 13:11:01;;;;;;;3.47;2.67;;;0.90;99.90;;;;;;5091566;28;20056;-81
2023/01/24 13:13:37;;;;;;;3.00;1.75;;;0.90;99.90;;;;;;5091196;28;20508;-73
2023/01/24 13:16:42;;;;;;;4.47;2.30;;;0.80;99.90;;;;;;5084959;28;20047;-73
2023/01/24 13:19:21;;;;;;;3.20;2.58;;;0.90;99.90;;;;;;5067404;28;20052;-73
2023/01/24 13:21:55;;;;;;;2.90;2.15;;;0.80;99.90;;;;;;5084334;28;20048;-76
2023/01/24 13:24:48;;;;;;;4.20;2.00;;;0.80;99.90;;;;;;5093483;28;20389;-77
2023/01/24 13:27:38;;;;;;;3.63;2.70;;;0.80;99.90;;;;;;5092473;28;20048;-77
2023/01/24 13:30:21;;;;;;;4.85;2.58;;;0.80;99.90;;;;;;5095445;28;20526;-77
2023/01/24 13:32:51;;;;;;;5.53;2.50;;;0.80;99.90;;;;;;5080308;28;20048;-77
2023/01/24 13:35:22;;;;;;;3.17;2.50;;;0.80;99.90;;;;;;5084054;28;20167;-78
2023/01/24 13:37:56;;;;;;;3.42;3.03;;;0.80;99.90;;;;;;5082022;28;20052;-76
2023/01/24 13:40:30;;;;;;;5.38;2.85;;;0.80;99.90;;;;;;5084804;28;20071;-72
2023/01/24 13:42:58;;;;;;;4.65;2.42;;;0.80;99.90;;;;;;5081315;28;20075;-74
2023/01/24 13:45:51;;;;;;;3.78;2.45;;;0.80;99.90;;;;;;5087181;28;20086;-72
2023/01/24 13:48:54;;;;;;;5.32;2.50;;;0.80;99.90;;;;;;5090763;28;20138;-74
2023/01/24 13:51:49;;;;;;;4.72;3.08;;;0.80;99.90;;;;;;5083321;28;20058;-75
2023/01/24 13:54:37;;;;;;;4.43;3.65;;;0.70;99.90;;;;;;5088084;28;20084;-72
2023/01/24 13:57:26;;;;;;;5.38;2.83;;;0.80;99.90;;;;;;5081739;28;20537;-74
2023/01/24 14:00:18;;;;;;;9.32;3.10;;;0.70;99.90;;;;;;5075680;28;20142;-74
2023/01/24 14:03:19;;;;;;;5.70;3.60;;;0.70;99.90;;;;;;5075158;28;20714;-71